Kentland, IN (47951)

2:20 PM CDT on May 30, 2015 (GMT -0500)
north sheldon | | Change Station
CLOSE
Current Station
Personal Weather Station
Location: Sheldon, IL
Elevation: 682 ft
Nearby Weather Stations

Elev 682 ft 40.79 °N, 87.58 °W | Updated 1 minute ago

Overcast
Overcast
77.9 °F
Feels Like 80 °F
N
5.8
Wind Variable Wind from ESE

Today
High -- | Low -- °F
--% Chance of Precip.
Yesterday
High -- | Low -- °F
Precip. -- in
5:21 AM 8:13 PM
Waxing Gibbous, 91% visible
Pressure 29.95 in
Visibility 10.0 miles
Clouds Mostly Cloudy 1800 ft
Mostly Cloudy 3000 ft
Overcast 3500 ft
Heat Index 80 °F
Dew Point 70 °F
Humidity 77%
Rainfall 0.43 in
Snow Depth Not available.
UV 3 out of 12
Pollen 1.80 out of 12
Air Quality Not available.
Flu Activity No Activity
METAR KRZL 301855Z AUTO 00000KT 10SM -RA BKN018 BKN030 OVC035 23/20 A2995 RMK AO2 LTG DSNT SE

More Conditions Fewer Conditions

Pressure 29.95 in
Visibility 10.0 miles
Clouds Mostly Cloudy 1800 ft
Mostly Cloudy 3000 ft
Overcast 3500 ft
Heat Index 80 °F
Dew Point 70 °F
Humidity 77%
Rainfall 0.43 in
Snow Depth Not available.
UV 3 out of 12
Pollen 1.80 out of 12
Air Quality Not available.
Flu Activity No Activity
METAR KRZL 301855Z AUTO 00000KT 10SM -RA BKN018 BKN030 OVC035 23/20 A2995 RMK AO2 LTG DSNT SE

More Conditions Fewer Conditions

10-Day Weather Forecast

Almanac

Astronomy

May. 30, 2015 Rise Set
Actual Time
Civil Twilight
Nautical Twilight
Astronomical Twilight
Moon
Length of Visible Light
Length of Day
Tomorrow will be .
, % of the Moon is Illuminated

Today's Extremes

State Highs State Lows

Community

WunderPhotos

Upload Photos

1,825,588 photos uploaded!

WunderBlogs® & News

Nearby

Air Quality

  Air Quality AQ Index Pollutant
Not available.

Snow Depth

Station Depth Elevation

Earthquake Activity

City Distance Mag. Time & Date
Minimum magnitude displayed is 2.5.

Coastal Water Temperatures

Place Temperature

Stations

Nearby Weather Stations

Station Location Temp. Windchill Dew Point Humidity Wind Precip. Elev Updated Type